Cherry Grove, Oregon
Current Conditions -  °F | °C
As of 8:26 PM on Thursday 20 Nov 2014 (Local Time) from KHIO Reporting Station
Moderate Fog Moderate Fog  
Wind Chill:   Ceiling: Unl
Heat Index:   Visibility: 0.5mi
Dew Point:   Wind: 0mph
Humidity: 100%   Direction: NA
Pressure: 29.96"   Gusts: NA
Location:  45.45°N, 123.24°W
Report Text: KHIO 210426Z 00000KT 1/2SM R13/2800VP6000FT FG SCT005 03/03 A2996 RMK AO2 T00280028
Loading
Personal Weather Stations






























Interactive Weather Map New forecast layout! Learn more

10-Day Weather Forecast

Advertisements
Track Severe Weather on mobile